Rio del Mar, California
Current Conditions -  °F | °C
As of 11:53 PM on Saturday 25 Oct 2014 (Local Time) from KWVI Reporting Station
Clear Clear  
Wind Chill: 57°   Ceiling: Unl
Heat Index: 57°   Visibility: 10mi
Dew Point: 55°   Wind: 6mph
Humidity: 93%   Direction: 320°NW
Pressure: 30.15"   Gusts: NA
Location:  37.0137°N, 121.877°W
Report Text: KWVI 260653Z AUTO 32005KT 10SM CLR 14/13 A3015 RMK AO2 SLP210 T01390128
Loading
Personal Weather Stations






























Interactive Weather Map
Tropical Storm Tracking
New forecast layout! Learn more

10-Day Weather Forecast

Advertisements
Track Severe Weather on mobile